createdAt,value
2019-05-15T00:01:25.547Z,83.00
2019-05-15T00:03:52.146Z,82.97
2019-05-15T00:06:19.165Z,82.72
2019-05-15T00:08:47.997Z,82.42
2019-05-15T00:11:14.784Z,81.96
2019-05-15T00:13:41.577Z,82.27
2019-05-15T00:16:08.654Z,81.80
2019-05-15T00:18:35.616Z,82.31
2019-05-15T00:21:02.355Z,82.22
2019-05-15T00:23:29.305Z,82.37
2019-05-15T00:25:58.489Z,82.08
2019-05-15T00:28:24.652Z,82.24
2019-05-15T00:30:51.367Z,82.57
2019-05-15T00:33:19.343Z,82.77
2019-05-15T00:35:48.435Z,82.37
2019-05-15T00:38:14.738Z,82.21
2019-05-15T00:40:41.509Z,82.48
2019-05-15T00:43:08.946Z,82.34
2019-05-15T00:45:38.573Z,82.35
2019-05-15T00:48:05.692Z,82.47
2019-05-15T00:50:32.510Z,82.19
2019-05-15T00:53:00.205Z,82.12
2019-05-15T00:55:30.935Z,82.12
2019-05-15T00:57:59.009Z,82.08
2019-05-15T01:00:42.100Z,82.30
2019-05-15T01:03:09.817Z,82.73
2019-05-15T01:05:38.613Z,83.14
2019-05-15T01:08:09.030Z,82.62
2019-05-15T01:10:38.371Z,82.39
2019-05-15T01:13:04.506Z,82.84
2019-05-15T01:15:31.365Z,82.33
2019-05-15T01:17:58.376Z,82.58
2019-05-15T01:20:25.410Z,82.70
2019-05-15T01:22:52.221Z,83.00
2019-05-15T01:25:19.351Z,82.76
2019-05-15T01:27:46.009Z,82.93
2019-05-15T01:32:59.259Z,82.44
2019-05-15T01:35:25.987Z,82.43
2019-05-15T01:37:53.613Z,82.24
2019-05-15T01:40:28.923Z,82.77
2019-05-15T01:42:58.155Z,82.76
2019-05-15T01:45:24.259Z,82.52
2019-05-15T01:47:50.871Z,82.88
2019-05-15T01:50:18.775Z,82.73
2019-05-15T01:53:04.161Z,82.57
2019-05-15T01:55:30.719Z,82.33
2019-05-15T01:57:59.439Z,82.47
2019-05-15T02:00:28.165Z,82.77
2019-05-15T02:02:54.741Z,82.33
2019-05-15T02:05:21.725Z,82.34
2019-05-15T02:07:50.180Z,82.72
2019-05-15T02:10:20.522Z,82.92
2019-05-15T02:12:48.111Z,82.68
2019-05-15T02:15:15.349Z,82.78
2019-05-15T02:17:42.371Z,83.04
2019-05-15T02:20:13.160Z,82.86
2019-05-15T02:22:42.484Z,82.81
2019-05-15T02:25:08.989Z,82.59
2019-05-15T02:27:35.670Z,82.96
2019-05-15T02:30:21.103Z,82.82
2019-05-15T02:32:58.710Z,83.04
2019-05-15T02:35:24.138Z,82.88
2019-05-15T02:37:50.689Z,82.93
2019-05-15T02:40:19.193Z,82.72
2019-05-15T02:42:49.048Z,82.72
2019-05-15T02:45:14.893Z,82.78
2019-05-15T02:47:41.713Z,82.78
2019-05-15T02:50:10.768Z,82.63
2019-05-15T02:52:39.633Z,82.68
2019-05-15T02:55:09.373Z,82.59
2019-05-15T02:57:35.334Z,82.57
2019-05-15T03:00:10.365Z,82.53
2019-05-15T03:02:35.638Z,82.45
2019-05-15T03:05:09.257Z,82.50
2019-05-15T03:07:39.702Z,82.61
2019-05-15T03:10:05.325Z,82.56
2019-05-15T03:12:32.231Z,82.72
2019-05-15T03:15:00.616Z,83.44
2019-05-15T03:17:29.680Z,83.55
2019-05-15T03:19:59.077Z,83.71
2019-05-15T03:22:25.070Z,83.49
2019-05-15T03:24:51.662Z,83.30
2019-05-15T03:27:19.734Z,83.22
2019-05-15T03:29:49.411Z,83.02
2019-05-15T03:32:27.815Z,83.46
2019-05-15T03:34:47.802Z,83.09
2019-05-15T03:37:13.096Z,83.08
2019-05-15T03:39:40.189Z,83.09
2019-05-15T03:42:09.593Z,83.02
2019-05-15T03:44:39.028Z,82.87
2019-05-15T03:47:04.467Z,83.04
2019-05-15T03:49:31.119Z,83.11
2019-05-15T03:51:58.914Z,82.96
2019-05-15T03:54:44.900Z,82.97
2019-05-15T03:57:11.462Z,83.02
2019-05-15T03:59:39.968Z,82.88
2019-05-15T04:02:08.673Z,82.92
2019-05-15T04:04:35.374Z,82.72
2019-05-15T04:07:02.098Z,82.91
2019-05-15T04:09:29.414Z,83.08
2019-05-15T04:11:59.807Z,82.74
2019-05-15T04:14:25.343Z,82.69
2019-05-15T04:16:52.068Z,82.75
2019-05-15T04:19:19.583Z,82.94
2019-05-15T04:21:49.131Z,82.92
2019-05-15T04:24:15.531Z,83.12
2019-05-15T04:26:44.355Z,83.07
2019-05-15T04:29:10.964Z,83.06
2019-05-15T04:31:51.926Z,82.89
2019-05-15T04:34:08.988Z,82.82
2019-05-15T04:36:34.452Z,83.04
2019-05-15T04:39:00.937Z,82.77
2019-05-15T04:41:29.975Z,82.72
2019-05-15T04:43:56.002Z,82.73
2019-05-15T04:46:22.496Z,82.83
2019-05-15T04:48:50.148Z,82.96
2019-05-15T04:51:19.011Z,83.09
2019-05-15T04:53:49.920Z,83.10
2019-05-15T04:56:14.923Z,83.16
2019-05-15T04:58:42.629Z,83.45
2019-05-15T05:01:09.658Z,83.41
2019-05-15T05:03:39.351Z,83.16
2019-05-15T05:06:05.273Z,83.33
2019-05-15T05:08:33.947Z,83.35
2019-05-15T05:11:00.643Z,83.25
2019-05-15T05:13:28.683Z,83.12
2019-05-15T05:15:58.456Z,83.26
2019-05-15T05:18:24.322Z,83.09
2019-05-15T05:20:51.141Z,83.34
2019-05-15T05:23:19.358Z,83.17
2019-05-15T05:25:48.817Z,83.12
2019-05-15T05:28:15.296Z,83.06
2019-05-15T05:30:42.333Z,83.13
2019-05-15T05:33:09.071Z,83.20
2019-05-15T05:35:35.719Z,83.40
2019-05-15T05:38:02.692Z,83.41
2019-05-15T05:40:29.521Z,83.25
2019-05-15T05:42:59.617Z,83.32
2019-05-15T05:45:28.718Z,83.32
2019-05-15T05:47:55.087Z,83.62
2019-05-15T05:50:44.051Z,83.54
2019-05-15T05:53:10.149Z,83.36
2019-05-15T05:55:38.503Z,83.47
2019-05-15T05:58:08.023Z,83.50
2019-05-15T06:00:39.328Z,83.60
2019-05-15T06:03:08.722Z,83.78
2019-05-15T06:05:38.772Z,83.86
2019-05-15T06:08:08.043Z,83.67
2019-05-15T06:10:35.016Z,83.78
2019-05-15T06:13:01.671Z,83.73
2019-05-15T06:15:28.629Z,83.66
2019-05-15T06:17:55.280Z,83.44
2019-05-15T06:20:22.023Z,83.25
2019-05-15T06:22:48.519Z,83.22
2019-05-15T06:25:15.348Z,83.54
2019-05-15T06:27:43.593Z,83.58
2019-05-15T06:30:18.485Z,83.44
2019-05-15T06:32:40.247Z,83.38
2019-05-15T06:35:08.695Z,83.42
2019-05-15T06:37:35.864Z,83.33
2019-05-15T06:40:03.770Z,83.26
2019-05-15T06:42:30.478Z,83.61
2019-05-15T06:44:58.971Z,83.58
2019-05-15T06:47:25.877Z,83.26
2019-05-15T06:49:52.429Z,83.36
2019-05-15T06:52:19.135Z,83.71
2019-05-15T06:54:48.358Z,83.96
2019-05-15T06:57:14.497Z,83.74
2019-05-15T06:59:41.337Z,84.01
2019-05-15T07:02:08.182Z,84.00
2019-05-15T07:04:34.861Z,83.98
2019-05-15T07:07:01.733Z,83.90
2019-05-15T07:09:28.653Z,83.75
2019-05-15T07:11:55.543Z,83.56
2019-05-15T07:14:22.353Z,83.61
2019-05-15T07:16:49.056Z,83.55
2019-05-15T07:19:18.990Z,83.27
2019-05-15T07:21:45.953Z,83.09
2019-05-15T07:24:12.650Z,82.97
2019-05-15T07:26:39.443Z,82.90
2019-05-15T07:29:07.900Z,83.00
2019-05-15T07:31:34.743Z,82.96
2019-05-15T07:34:01.638Z,83.20
2019-05-15T07:36:28.837Z,83.12
2019-05-15T07:38:58.079Z,83.22
2019-05-15T07:41:24.968Z,83.43
2019-05-15T07:43:51.487Z,83.31
2019-05-15T07:46:18.554Z,83.21
2019-05-15T07:48:45.401Z,82.96
2019-05-15T07:51:12.119Z,82.99
2019-05-15T07:53:38.879Z,83.13
2019-05-15T07:56:05.606Z,83.28
2019-05-15T07:58:32.556Z,83.32
2019-05-15T08:00:59.516Z,83.22
2019-05-15T08:03:29.037Z,83.21
2019-05-15T08:05:59.053Z,83.27
2019-05-15T08:08:23.203Z,83.23
2019-05-15T08:10:49.870Z,83.03
2019-05-15T08:13:18.523Z,83.29
2019-05-15T08:15:45.194Z,83.06
2019-05-15T08:18:12.957Z,83.03
2019-05-15T08:20:39.930Z,83.35
2019-05-15T08:23:08.511Z,83.67
2019-05-15T08:25:38.776Z,83.53
2019-05-15T08:28:08.327Z,83.70
2019-05-15T08:30:34.618Z,83.61
2019-05-15T08:33:03.005Z,83.04
2019-05-15T08:35:29.685Z,83.32
2019-05-15T08:37:58.230Z,83.41
2019-05-15T08:40:25.106Z,83.25
2019-05-15T08:42:57.082Z,83.50
2019-05-15T08:45:20.549Z,83.32
2019-05-15T08:47:49.291Z,83.36
2019-05-15T08:50:18.264Z,83.30
2019-05-15T08:52:44.760Z,83.31
2019-05-15T08:55:12.095Z,83.17
2019-05-15T08:57:38.763Z,83.22
2019-05-15T09:00:09.627Z,83.02
2019-05-15T09:02:38.097Z,83.14
2019-05-15T09:05:08.616Z,83.08
2019-05-15T09:07:38.345Z,83.02
2019-05-15T09:10:09.430Z,83.16
2019-05-15T09:12:38.820Z,83.12
2019-05-15T09:15:07.924Z,83.16
2019-05-15T09:17:34.613Z,83.43
2019-05-15T09:20:01.611Z,83.74
2019-05-15T09:22:29.166Z,83.18
2019-05-15T09:24:58.800Z,83.36
2019-05-15T09:27:25.236Z,83.44
2019-05-15T09:29:53.017Z,83.40
2019-05-15T09:32:19.535Z,83.26
2019-05-15T09:34:54.923Z,83.52
2019-05-15T09:37:18.024Z,83.68
2019-05-15T09:39:45.103Z,83.60
2019-05-15T09:42:11.732Z,83.49
2019-05-15T09:44:39.198Z,83.33
2019-05-15T09:47:09.174Z,83.51
2019-05-15T09:49:38.968Z,83.79
2019-05-15T09:52:05.261Z,83.69
2019-05-15T09:54:32.413Z,83.73
2019-05-15T09:56:59.174Z,83.79
2019-05-15T09:59:28.004Z,83.69
2019-05-15T10:01:54.516Z,83.63
2019-05-15T10:04:21.415Z,83.41
2019-05-15T10:06:48.632Z,83.55
2019-05-15T10:09:18.675Z,83.82
2019-05-15T10:11:44.945Z,83.77
2019-05-15T10:14:11.933Z,83.48
2019-05-15T10:16:38.760Z,83.73
2019-05-15T10:19:08.944Z,83.75
2019-05-15T10:21:35.789Z,83.93
2019-05-15T10:24:02.820Z,83.87
2019-05-15T10:26:29.403Z,83.81
2019-05-15T10:28:58.426Z,83.77
2019-05-15T10:31:24.869Z,84.02
2019-05-15T10:33:53.537Z,84.04
2019-05-15T10:36:20.423Z,83.79
2019-05-15T10:38:48.798Z,83.37
2019-05-15T10:41:15.725Z,83.47
2019-05-15T10:43:45.741Z,83.15
2019-05-15T10:46:13.504Z,83.29
2019-05-15T10:48:39.897Z,83.53
2019-05-15T10:51:10.085Z,83.16
2019-05-15T10:53:35.259Z,83.25
2019-05-15T10:56:02.695Z,83.30
2019-05-15T10:58:29.555Z,83.28
2019-05-15T11:01:00.925Z,83.58
2019-05-15T11:03:25.279Z,83.35
2019-05-15T11:05:51.992Z,83.41
2019-05-15T11:08:19.008Z,83.16
2019-05-15T11:10:48.608Z,83.23
2019-05-15T11:13:14.486Z,83.37
2019-05-15T11:15:42.599Z,83.36
2019-05-15T11:18:09.635Z,83.31
2019-05-15T11:20:40.914Z,83.30
2019-05-15T11:23:08.104Z,83.54
2019-05-15T11:25:37.662Z,83.60
2019-05-15T11:28:04.225Z,83.38
2019-05-15T11:30:30.804Z,83.80
2019-05-15T11:32:58.761Z,83.52
2019-05-15T11:35:28.364Z,83.79
2019-05-15T11:37:57.013Z,83.82
2019-05-15T11:40:23.433Z,83.79
2019-05-15T11:42:51.148Z,84.00
2019-05-15T11:45:19.302Z,84.03
2019-05-15T11:47:48.128Z,83.91
2019-05-15T11:50:20.029Z,83.62
2019-05-15T11:52:45.811Z,83.72
2019-05-15T11:55:13.060Z,83.74
2019-05-15T11:57:46.831Z,84.03
2019-05-15T12:00:17.110Z,83.67
2019-05-15T12:02:38.609Z,83.39
2019-05-15T12:05:08.937Z,83.63
2019-05-15T12:07:38.006Z,83.56
2019-05-15T12:10:10.410Z,83.42
2019-05-15T12:12:38.594Z,83.62
2019-05-15T12:15:05.541Z,83.44
2019-05-15T12:17:34.248Z,83.40
2019-05-15T12:20:06.454Z,83.34
2019-05-15T12:22:29.916Z,83.49
2019-05-15T12:25:00.165Z,83.49
2019-05-15T12:27:25.476Z,83.61
2019-05-15T12:29:52.098Z,83.77
2019-05-15T12:34:49.501Z,83.50
2019-05-15T12:37:16.118Z,83.65
2019-05-15T12:37:59.046Z,83.87
2019-05-15T12:39:42.949Z,83.87
2019-05-15T13:02:04.718Z,84.09
2019-05-15T13:04:31.919Z,84.12
2019-05-15T13:07:12.921Z,84.28
2019-05-15T13:09:29.830Z,84.48
2019-05-15T13:11:56.452Z,84.33
2019-05-15T13:14:22.947Z,84.23
2019-05-15T13:16:49.730Z,84.30
2019-05-15T13:19:18.758Z,84.36
2019-05-15T13:21:44.955Z,84.32
2019-05-15T13:24:11.717Z,84.63
2019-05-15T13:26:38.620Z,84.70
2019-05-15T13:29:05.509Z,84.71
2019-05-15T13:31:33.883Z,84.71
2019-05-15T13:34:00.788Z,84.69
2019-05-15T13:36:29.261Z,84.70
2019-05-15T13:38:57.881Z,84.73
2019-05-15T13:41:24.828Z,84.82
2019-05-15T13:43:51.516Z,84.80
2019-05-15T13:46:20.644Z,84.85
2019-05-15T13:48:49.032Z,85.02
2019-05-15T13:51:18.251Z,85.17
2019-05-15T13:53:45.098Z,85.01
2019-05-15T13:56:11.666Z,84.80
2019-05-15T13:58:38.951Z,85.01
2019-05-15T14:01:07.238Z,84.96
2019-05-15T14:03:34.713Z,85.08
2019-05-15T14:06:01.732Z,85.07
2019-05-15T14:08:29.005Z,85.15
2019-05-15T14:10:58.111Z,85.16
2019-05-15T14:13:24.500Z,85.18
2019-05-15T14:15:52.617Z,85.29
2019-05-15T14:18:19.893Z,84.89
2019-05-15T14:20:48.898Z,84.81
2019-05-15T14:23:15.844Z,84.95
2019-05-15T14:25:42.985Z,84.83
2019-05-15T14:28:09.819Z,84.71
2019-05-15T14:30:37.616Z,84.63
2019-05-15T14:33:04.260Z,84.71
2019-05-15T14:35:31.009Z,84.64
2019-05-15T14:38:06.297Z,84.36
2019-05-15T14:40:28.486Z,84.16
2019-05-15T14:42:55.637Z,84.14
2019-05-15T14:45:22.610Z,84.04
2019-05-15T14:47:49.539Z,84.35
2019-05-15T14:50:16.763Z,84.32
2019-05-15T14:52:43.589Z,84.18
2019-05-15T14:55:11.365Z,84.06
2019-05-15T14:57:39.677Z,84.12
2019-05-15T15:00:08.964Z,84.55
2019-05-15T15:02:38.644Z,84.60
2019-05-15T15:05:04.830Z,84.71
2019-05-15T15:07:31.521Z,84.92
2019-05-15T15:09:58.367Z,84.64
2019-05-15T15:12:25.029Z,84.78
2019-05-15T15:14:51.636Z,84.85
2019-05-15T15:17:19.567Z,85.08
2019-05-15T15:19:51.605Z,85.39
2019-05-15T15:22:15.789Z,85.34
2019-05-15T15:24:42.558Z,85.57
2019-05-15T15:27:09.370Z,85.42
2019-05-15T15:29:38.753Z,85.36
2019-05-15T15:32:04.902Z,85.12
2019-05-15T15:34:31.752Z,85.03
2019-05-15T15:36:58.587Z,85.14
2019-05-15T15:39:25.265Z,84.93
2019-05-15T15:41:52.024Z,84.76
2019-05-15T15:44:18.854Z,84.71
2019-05-15T15:46:48.308Z,84.72
2019-05-15T15:49:16.951Z,84.69
2019-05-15T15:51:43.484Z,84.60
2019-05-15T15:54:10.180Z,84.48
2019-05-15T15:56:39.169Z,84.49
2019-05-15T15:59:05.526Z,84.55
2019-05-15T16:01:33.890Z,84.59
2019-05-15T16:04:01.442Z,84.63
2019-05-15T16:06:29.353Z,84.75
2019-05-15T16:08:56.494Z,84.56
2019-05-15T16:11:23.384Z,84.66
2019-05-15T16:13:50.244Z,84.40
2019-05-15T16:16:17.954Z,84.26
2019-05-15T16:18:44.920Z,84.55
2019-05-15T16:21:11.558Z,84.52
2019-05-15T16:23:38.706Z,84.57
2019-05-15T16:26:05.623Z,84.60
2019-05-15T16:28:34.163Z,84.65
2019-05-15T16:31:01.067Z,84.53
2019-05-15T16:33:28.319Z,84.48
2019-05-15T16:35:57.963Z,84.44
2019-05-15T16:38:25.192Z,84.44
2019-05-15T16:40:52.379Z,84.45
2019-05-15T16:43:19.008Z,84.46
2019-05-15T16:45:49.493Z,84.49
2019-05-15T16:48:14.549Z,84.45
2019-05-15T16:50:41.183Z,84.44
2019-05-15T16:53:09.170Z,84.35
2019-05-15T16:55:37.834Z,84.54
2019-05-15T16:58:04.612Z,84.49
2019-05-15T17:00:31.755Z,84.70
2019-05-15T17:03:09.013Z,84.72
2019-05-15T17:05:29.093Z,84.79
2019-05-15T17:07:58.181Z,84.69
2019-05-15T17:10:24.725Z,84.95
2019-05-15T17:12:54.476Z,84.91
2019-05-15T17:15:21.301Z,85.13
2019-05-15T17:17:50.110Z,85.29
2019-05-15T17:20:18.185Z,85.30
2019-05-15T17:22:45.525Z,85.33
2019-05-15T17:25:12.584Z,85.26
2019-05-15T17:27:39.193Z,85.59
2019-05-15T17:30:09.590Z,85.64
2019-05-15T17:32:39.735Z,85.41
2019-05-15T17:35:09.753Z,85.50
2019-05-15T17:37:37.982Z,85.75
2019-05-15T17:40:05.817Z,85.69
2019-05-15T17:42:32.584Z,85.67
2019-05-15T17:44:59.114Z,85.64
2019-05-15T17:47:28.439Z,85.70
2019-05-15T17:49:55.785Z,85.63
2019-05-15T17:52:23.364Z,85.62
2019-05-15T17:54:50.218Z,85.59
2019-05-15T17:57:19.305Z,85.43
2019-05-15T17:59:45.480Z,85.35
2019-05-15T18:02:12.180Z,85.54
2019-05-15T18:04:39.077Z,85.79
2019-05-15T18:07:08.457Z,85.88
2019-05-15T18:09:47.560Z,85.88
2019-05-15T18:12:03.879Z,86.06
2019-05-15T18:14:30.770Z,86.01
2019-05-15T18:16:58.595Z,85.99
2019-05-15T18:19:25.550Z,85.95
2019-05-15T18:21:52.283Z,85.79
2019-05-15T18:24:19.304Z,85.80
2019-05-15T18:26:46.026Z,85.98
2019-05-15T18:29:13.190Z,85.85
2019-05-15T18:31:40.241Z,85.90
2019-05-15T18:34:08.299Z,85.74
2019-05-15T18:36:35.530Z,85.82
2019-05-15T18:39:03.866Z,85.86
2019-05-15T18:41:31.070Z,85.87
2019-05-15T18:43:57.991Z,86.15
2019-05-15T18:46:24.960Z,86.16
2019-05-15T18:48:51.878Z,86.28
2019-05-15T18:51:19.142Z,86.22
2019-05-15T18:53:55.253Z,86.43
2019-05-15T18:57:18.662Z,86.34
2019-05-15T19:00:08.773Z,86.13
2019-05-15T19:02:48.017Z,85.82
2019-05-15T19:05:15.225Z,85.59
2019-05-15T19:07:58.209Z,85.51
2019-05-15T19:10:38.607Z,85.33
2019-05-15T19:13:53.891Z,85.24
2019-05-15T19:16:23.746Z,85.19
2019-05-15T19:19:33.271Z,85.14
2019-05-15T19:22:29.517Z,85.08
2019-05-15T19:25:05.203Z,84.77
2019-05-15T19:27:33.325Z,84.67
2019-05-15T19:30:00.650Z,84.72
2019-05-15T19:32:30.282Z,84.63
2019-05-15T19:34:58.865Z,84.58
2019-05-15T19:37:25.742Z,84.77
2019-05-15T19:39:52.745Z,84.76
2019-05-15T19:42:19.533Z,84.89
2019-05-15T19:44:48.312Z,84.57
2019-05-15T19:50:05.123Z,84.69
2019-05-15T19:52:31.970Z,84.82
2019-05-15T19:54:59.285Z,84.93
2019-05-15T19:57:28.015Z,85.05
2019-05-15T19:59:54.938Z,85.07
2019-05-15T20:02:21.759Z,85.04
2019-05-15T20:04:49.170Z,84.80
2019-05-15T20:07:18.590Z,84.67
2019-05-15T20:09:47.635Z,84.59
2019-05-15T20:12:14.530Z,84.59
2019-05-15T20:14:41.888Z,84.90
2019-05-15T20:17:08.596Z,84.60
2019-05-15T20:19:35.567Z,84.39
2019-05-15T20:22:02.382Z,84.36
2019-05-15T20:24:29.441Z,84.21
2019-05-15T20:26:56.148Z,84.47
2019-05-15T20:29:23.040Z,84.52
2019-05-15T20:31:50.008Z,84.22
2019-05-15T20:34:17.017Z,84.41
2019-05-15T20:36:43.675Z,84.66
2019-05-15T20:39:10.726Z,84.67
2019-05-15T20:41:38.497Z,84.52
2019-05-15T20:44:05.893Z,84.78
2019-05-15T20:46:32.863Z,84.65
2019-05-15T20:48:59.647Z,84.66
2019-05-15T20:51:29.035Z,84.75
2019-05-15T20:53:57.864Z,84.62
2019-05-15T20:56:24.410Z,84.52
2019-05-15T20:58:51.030Z,84.40
2019-05-15T21:01:18.307Z,84.28
2019-05-15T21:03:45.429Z,84.23
2019-05-15T21:06:12.618Z,84.04
2019-05-15T21:08:39.833Z,84.15
2019-05-15T21:11:11.334Z,84.14
2019-05-15T21:13:35.326Z,84.07
2019-05-15T21:16:02.229Z,84.17
2019-05-15T21:18:31.330Z,84.11
2019-05-15T21:20:58.123Z,84.23
2019-05-15T21:23:25.445Z,84.28
2019-05-15T21:25:52.145Z,84.28
2019-05-15T21:28:19.217Z,84.37
2019-05-15T21:30:48.823Z,84.44
2019-05-15T21:33:14.812Z,84.44
2019-05-15T21:35:41.738Z,84.67
2019-05-15T21:38:09.486Z,84.71
2019-05-15T21:40:38.450Z,85.00
2019-05-15T21:43:04.829Z,84.84
2019-05-15T21:45:37.626Z,84.64
2019-05-15T21:48:04.551Z,84.56
2019-05-15T21:50:31.370Z,84.37
2019-05-15T21:52:58.344Z,84.42
2019-05-15T21:55:25.237Z,84.49
2019-05-15T21:57:52.365Z,84.79
2019-05-15T22:03:49.540Z,84.99
2019-05-15T22:09:48.731Z,84.98
2019-05-15T22:12:18.252Z,84.79
2019-05-15T22:14:44.551Z,84.64
2019-05-15T22:17:12.100Z,84.57
2019-05-15T22:19:39.014Z,84.40
2019-05-15T22:22:05.635Z,84.43
2019-05-15T22:27:31.805Z,84.46
2019-05-15T22:29:58.924Z,84.55
2019-05-15T22:32:25.761Z,84.49
2019-05-15T22:35:05.739Z,84.21
2019-05-15T22:37:21.682Z,84.12
2019-05-15T22:39:48.633Z,84.46
2019-05-15T22:42:18.144Z,84.63
2019-05-15T22:44:44.296Z,84.75
2019-05-15T22:47:11.157Z,84.73
2019-05-15T22:49:38.147Z,84.56
2019-05-15T22:52:11.039Z,84.49
2019-05-15T22:54:58.457Z,84.44
2019-05-15T22:57:25.160Z,84.42
2019-05-15T22:59:54.629Z,84.37
2019-05-15T23:02:28.359Z,84.69
2019-05-15T23:04:55.019Z,84.62
2019-05-15T23:07:22.141Z,84.47
2019-05-15T23:09:49.097Z,84.44
2019-05-15T23:12:18.177Z,84.16
2019-05-15T23:14:44.583Z,84.18
2019-05-15T23:17:11.980Z,84.31
2019-05-15T23:19:38.648Z,84.46
2019-05-15T23:22:08.193Z,84.51
2019-05-15T23:24:38.585Z,84.38
2019-05-15T23:27:05.026Z,84.51
2019-05-15T23:29:50.732Z,84.60
2019-05-15T23:32:18.217Z,84.61
2019-05-15T23:34:45.110Z,84.56
2019-05-15T23:37:14.340Z,84.86
2019-05-15T23:40:00.986Z,84.90
2019-05-15T23:42:29.181Z,84.85
2019-05-15T23:44:56.408Z,84.76
2019-05-15T23:47:22.983Z,84.90
2019-05-15T23:49:49.608Z,85.12
2019-05-15T23:52:18.470Z,85.22
2019-05-15T23:55:08.498Z,85.26
2019-05-15T23:57:35.267Z,85.38
